Time;durP1;ratioP1;P1;durP2;ratioP2;P2;SDS_P1;SDS_P2;PMS_P1;PMS_P2;Temp;Humidity;BMP_temperature;BMP_pressure;BME280_temperature;BME280_humidity;BME280_pressure;Samples;Min_cycle;Max_cycle;Signal;HPM_P1;HPM_P2
2022/01/24 00:00:38;;;;;;;2.13;1.10;;;18.20;51.40;;;;;;6047792;23;20152;-87
2022/01/24 00:03:06;;;;;;;1.77;1.23;;;18.10;51.40;;;;;;6046688;23;20157;-88
2022/01/24 00:05:33;;;;;;;1.75;1.20;;;18.10;51.60;;;;;;6044799;23;20218;-88
2022/01/24 00:08:03;;;;;;;1.65;1.20;;;18.10;51.30;;;;;;6043673;23;20166;-88
2022/01/24 00:10:30;;;;;;;1.75;1.15;;;18.10;51.40;;;;;;6078888;23;20167;-87
2022/01/24 00:13:26;;;;;;;2.72;1.17;;;18.10;51.60;;;;;;6088883;23;20592;-87
2022/01/24 00:15:58;;;;;;;1.88;1.00;;;18.10;51.40;;;;;;6147841;23;20709;-87
2022/01/24 00:26:39;;;;;;;2.67;1.45;;;18.10;51.70;;;;;;6143733;23;20178;-87
2022/01/24 00:26:58;;;;;;;2.35;1.13;;;18.10;51.60;;;;;;6124873;23;20147;-87
2022/01/24 00:29:33;;;;;;;2.60;1.10;;;18.10;51.40;;;;;;6090907;23;20158;-88
2022/01/24 00:32:05;;;;;;;1.92;1.23;;;18.10;51.30;;;;;;6163495;23;20154;-88
2022/01/24 00:34:34;;;;;;;2.28;1.20;;;18.00;51.50;;;;;;6091541;23;20154;-87
2022/01/24 00:37:00;;;;;;;1.13;1.05;;;18.10;51.30;;;;;;6137826;23;20510;-87
2022/01/24 00:39:32;;;;;;;2.03;1.42;;;18.00;51.60;;;;;;6139331;23;20178;-87
2022/01/24 00:44:45;;;;;;;1.52;1.17;;;18.00;51.70;;;;;;6229466;22;20145;-88
2022/01/24 00:47:25;;;;;;;1.70;1.10;;;18.00;51.60;;;;;;6210302;22;20166;-88
2022/01/24 00:55:20;;;;;;;2.38;1.20;;;18.00;51.70;;;;;;6236669;22;20144;-87
2022/01/24 00:57:52;;;;;;;2.58;1.30;;;18.00;51.60;;;;;;6206852;22;20141;-86
2022/01/24 01:00:20;;;;;;;2.38;1.30;;;18.00;51.70;;;;;;6228662;22;20175;-87
2022/01/24 01:02:47;;;;;;;1.52;1.17;;;18.10;51.80;;;;;;6155090;22;20163;-87
2022/01/24 01:05:39;;;;;;;1.50;1.23;;;18.00;51.70;;;;;;6230034;22;20520;-87
2022/01/24 01:18:04;;;;;;;1.52;1.20;;;18.00;51.70;;;;;;6237854;22;20149;-88
2022/01/24 01:18:57;;;;;;;1.98;1.13;;;17.90;51.60;;;;;;6215337;22;20180;-87
2022/01/24 01:21:29;;;;;;;2.95;1.50;;;18.00;51.90;;;;;;6230241;22;20149;-88
2022/01/24 01:24:00;;;;;;;2.92;1.30;;;17.90;51.80;;;;;;6205052;22;20145;-88
2022/01/24 01:26:36;;;;;;;3.20;1.35;;;17.90;51.70;;;;;;6179539;22;20599;-87
2022/01/24 01:29:16;;;;;;;1.25;1.08;;;17.90;51.80;;;;;;6183800;22;20213;-87
2022/01/24 01:34:51;;;;;;;1.92;1.33;;;17.90;51.80;;;;;;6215226;22;20160;-87
2022/01/24 01:54:10;;;;;;;1.60;1.27;;;17.80;52.00;;;;;;6218159;22;20532;-87
2022/01/24 01:56:40;;;;;;;1.65;1.30;;;17.80;52.00;;;;;;6190746;22;20178;-87
2022/01/24 01:59:12;;;;;;;1.88;1.10;;;17.80;52.00;;;;;;6205374;22;20188;-87
2022/01/24 02:01:49;;;;;;;2.20;1.30;;;17.80;51.80;;;;;;6179694;22;20162;-87
2022/01/24 02:04:15;;;;;;;1.90;1.30;;;17.90;52.10;;;;;;6154541;22;20156;-87
2022/01/24 02:06:43;;;;;;;2.15;1.27;;;17.90;51.90;;;;;;6230345;22;20540;-88
2022/01/24 02:09:13;;;;;;;2.00;1.35;;;17.80;51.90;;;;;;6206451;22;20195;-87
2022/01/24 02:11:39;;;;;;;1.77;1.35;;;17.90;52.00;;;;;;6230029;22;20364;-87
2022/01/24 02:14:10;;;;;;;1.90;1.00;;;17.80;51.90;;;;;;6205774;22;20148;-88
2022/01/24 02:16:47;;;;;;;3.92;1.30;;;17.80;52.20;;;;;;6207139;22;20156;-87
2022/01/24 02:19:26;;;;;;;1.85;1.20;;;17.90;52.30;;;;;;6208571;22;20246;-87
2022/01/24 02:22:18;;;;;;;1.20;1.05;;;17.80;52.40;;;;;;6211109;22;20174;-87
2022/01/24 02:24:54;;;;;;;2.15;1.27;;;17.80;52.30;;;;;;6255807;22;20140;-87
2022/01/24 02:27:22;;;;;;;2.45;1.30;;;17.80;52.10;;;;;;6211830;22;20584;-88
2022/01/24 02:29:56;;;;;;;3.55;1.30;;;17.80;52.20;;;;;;6208318;22;20152;-87
2022/01/24 02:32:23;;;;;;;2.22;1.20;;;17.80;52.00;;;;;;6210170;22;20141;-87
2022/01/24 02:34:51;;;;;;;1.17;1.08;;;17.80;52.30;;;;;;6207016;22;20145;-87
2022/01/24 02:37:19;;;;;;;1.75;1.30;;;17.70;52.40;;;;;;6227377;23;20644;-87
2022/01/24 02:39:49;;;;;;;1.33;1.10;;;17.80;52.30;;;;;;6202301;23;20508;-88
2022/01/24 02:53:14;;;;;;;1.50;1.10;;;17.70;52.40;;;;;;6263991;23;20129;-87
2022/01/24 02:55:45;;;;;;;3.47;1.20;;;17.70;52.40;;;;;;6177794;23;20157;-86
2022/01/24 02:58:12;;;;;;;2.13;1.08;;;17.70;52.20;;;;;;6228295;23;20243;-87
2022/01/24 03:00:41;;;;;;;2.15;1.25;;;17.70;52.30;;;;;;6202690;23;20152;-88
2022/01/24 03:03:12;;;;;;;3.25;1.15;;;17.70;52.40;;;;;;6203263;23;20149;-87
2022/01/24 03:05:43;;;;;;;2.15;1.35;;;17.70;52.40;;;;;;6253330;23;20585;-87
2022/01/24 03:08:09;;;;;;;1.88;1.23;;;17.70;52.50;;;;;;6203092;23;20149;-87
2022/01/24 03:10:43;;;;;;;2.45;1.20;;;17.60;52.40;;;;;;6203815;23;20149;-87
2022/01/24 03:13:32;;;;;;;1.30;1.13;;;17.70;52.60;;;;;;6180364;23;20230;-87
2022/01/24 03:16:04;;;;;;;1.58;1.10;;;17.70;52.60;;;;;;6232572;23;20543;-87
2022/01/24 03:18:40;;;;;;;1.58;1.15;;;17.70;52.50;;;;;;6178818;23;20589;-87
2022/01/24 03:21:11;;;;;;;1.73;1.40;;;17.70;52.50;;;;;;6153628;23;20153;-87
2022/01/24 03:23:41;;;;;;;1.30;1.17;;;17.70;52.40;;;;;;6253952;23;20153;-87
2022/01/24 03:26:08;;;;;;;1.63;1.10;;;17.70;52.40;;;;;;6228132;23;20149;-87
2022/01/24 03:28:39;;;;;;;2.28;1.10;;;17.70;52.60;;;;;;6228138;23;20229;-87
2022/01/24 03:31:08;;;;;;;1.42;1.17;;;17.70;52.30;;;;;;6177615;23;20153;-87
2022/01/24 03:33:37;;;;;;;1.55;1.15;;;17.60;52.50;;;;;;6177288;23;20149;-86
2022/01/24 03:36:06;;;;;;;1.67;1.10;;;17.70;52.40;;;;;;6152908;23;20153;-86
2022/01/24 03:38:39;;;;;;;1.70;1.30;;;17.70;52.60;;;;;;6201129;23;20280;-86
2022/01/24 03:41:13;;;;;;;1.67;1.08;;;17.70;52.40;;;;;;6152287;23;20551;-86
2022/01/24 03:43:44;;;;;;;1.27;1.05;;;17.70;52.50;;;;;;6176013;23;20150;-86
2022/01/24 03:46:25;;;;;;;3.97;1.10;;;17.70;52.50;;;;;;6253008;23;20164;-86
2022/01/24 03:49:07;;;;;;;1.63;1.15;;;17.70;52.50;;;;;;6185214;23;20475;-86
2022/01/24 03:51:33;;;;;;;2.22;1.13;;;17.70;52.40;;;;;;6208124;23;20149;-86
2022/01/24 03:54:06;;;;;;;1.88;1.20;;;17.60;52.30;;;;;;6202765;23;20168;-86
2022/01/24 03:56:35;;;;;;;1.48;1.20;;;17.70;52.50;;;;;;6176284;23;20157;-86
2022/01/24 03:59:05;;;;;;;1.35;1.20;;;17.70;52.60;;;;;;6176799;23;20181;-86
2022/01/24 04:01:35;;;;;;;3.50;1.10;;;17.60;52.40;;;;;;6177639;23;20484;-86
2022/01/24 04:04:08;;;;;;;1.98;1.45;;;17.70;52.60;;;;;;6202498;23;20149;-87
2022/01/24 04:06:37;;;;;;;2.78;1.40;;;17.60;52.30;;;;;;6201442;23;20241;-86
2022/01/24 04:09:02;;;;;;;2.40;1.48;;;17.60;52.50;;;;;;6176823;23;20152;-86
2022/01/24 04:11:38;;;;;;;1.75;1.35;;;17.60;52.30;;;;;;6203437;23;20276;-87
2022/01/24 04:14:25;;;;;;;2.33;1.23;;;17.60;52.50;;;;;;6179300;23;20149;-87
2022/01/24 04:22:47;;;;;;;2.03;1.10;;;17.60;52.60;;;;;;6253035;23;20601;-86
2022/01/24 04:25:16;;;;;;;1.92;1.27;;;17.60;52.60;;;;;;6183662;23;20172;-86
2022/01/24 04:27:42;;;;;;;2.47;1.27;;;17.60;52.60;;;;;;6203661;23;20152;-87
2022/01/24 04:30:09;;;;;;;1.42;0.98;;;17.60;52.50;;;;;;6227583;23;20228;-86
2022/01/24 04:32:36;;;;;;;2.13;1.30;;;17.60;52.50;;;;;;6227773;23;20639;-86
2022/01/24 04:35:03;;;;;;;1.73;1.27;;;17.60;52.60;;;;;;6227493;23;20172;-86
2022/01/24 04:37:29;;;;;;;1.70;1.13;;;17.60;52.60;;;;;;6208550;22;20224;-86
2022/01/24 04:39:58;;;;;;;3.00;1.23;;;17.60;52.50;;;;;;6208406;22;20176;-86
2022/01/24 04:42:35;;;;;;;1.55;1.00;;;17.60;52.10;;;;;;6234585;22;20170;-86
2022/01/24 04:50:45;;;;;;;1.63;1.00;;;17.60;52.60;;;;;;6262242;22;20158;-87
2022/01/24 04:53:33;;;;;;;2.03;1.13;;;17.60;52.60;;;;;;6214930;22;20445;-86
2022/01/24 04:56:01;;;;;;;1.83;1.38;;;17.60;52.60;;;;;;6237286;22;20189;-86
2022/01/24 04:58:29;;;;;;;1.67;1.25;;;17.60;52.40;;;;;;6259074;22;20160;-86
2022/01/24 05:00:55;;;;;;;1.98;1.23;;;17.60;52.60;;;;;;6232854;22;20129;-86
2022/01/24 05:03:21;;;;;;;2.03;1.10;;;17.60;52.60;;;;;;6207003;22;20148;-86
2022/01/24 05:05:50;;;;;;;1.25;1.00;;;17.60;52.70;;;;;;6232473;22;20140;-86
2022/01/24 05:08:16;;;;;;;1.73;1.10;;;17.60;52.70;;;;;;6259018;22;20140;-86
2022/01/24 05:10:59;;;;;;;1.80;1.00;;;17.60;52.60;;;;;;6208104;22;20148;-86
2022/01/24 05:21:53;;;;;;;2.95;1.48;;;17.60;52.40;;;;;;6237824;22;20132;-86
2022/01/24 05:24:17;;;;;;;1.20;1.00;;;17.70;52.40;;;;;;6240381;22;20156;-86
2022/01/24 05:26:48;;;;;;;3.40;1.55;;;17.70;51.80;;;;;;6231461;22;20195;-86
2022/01/24 05:29:19;;;;;;;1.70;1.10;;;17.70;51.80;;;;;;6232183;22;20148;-86
2022/01/24 05:31:50;;;;;;;1.30;1.20;;;17.70;51.80;;;;;;6204958;22;20156;-86
2022/01/24 05:34:17;;;;;;;1.60;1.30;;;17.90;51.50;;;;;;6232481;22;20145;-86
2022/01/24 05:36:42;;;;;;;2.10;1.30;;;17.90;51.40;;;;;;6257598;22;20137;-87
2022/01/24 05:39:09;;;;;;;1.00;0.80;;;17.90;51.50;;;;;;6231230;22;20658;-86
2022/01/24 05:41:39;;;;;;;1.30;1.20;;;18.00;51.80;;;;;;6231932;22;20172;-87
2022/01/24 05:44:06;;;;;;;1.30;1.08;;;17.90;51.20;;;;;;6206060;22;20149;-87
2022/01/24 05:46:33;;;;;;;1.10;0.93;;;17.90;51.10;;;;;;6256468;22;20186;-87
2022/01/24 05:49:01;;;;;;;1.17;0.90;;;18.00;51.10;;;;;;6206611;22;20144;-87
2022/01/24 05:51:29;;;;;;;1.35;1.10;;;17.90;50.80;;;;;;6258063;22;20156;-87
2022/01/24 05:53:55;;;;;;;1.25;1.10;;;18.00;50.80;;;;;;6231341;22;20204;-87
2022/01/24 05:56:21;;;;;;;2.50;1.02;;;18.00;50.70;;;;;;6231462;22;20456;-87
2022/01/24 05:58:52;;;;;;;1.40;1.00;;;18.10;50.90;;;;;;6257575;22;20167;-86
2022/01/24 06:01:20;;;;;;;2.10;1.10;;;18.00;50.70;;;;;;6181106;22;20211;-86
2022/01/24 06:03:46;;;;;;;1.15;1.00;;;18.10;50.80;;;;;;6208078;22;20505;-87
2022/01/24 06:06:13;;;;;;;1.17;0.88;;;18.10;50.50;;;;;;6232572;22;20476;-87
2022/01/24 06:08:41;;;;;;;1.40;1.10;;;18.10;50.60;;;;;;6206829;22;20153;-87
2022/01/24 06:11:11;;;;;;;2.42;1.08;;;18.10;50.60;;;;;;6182526;22;20156;-87
2022/01/24 06:13:40;;;;;;;1.00;0.80;;;18.10;50.40;;;;;;6209911;22;20195;-87
2022/01/24 06:16:06;;;;;;;1.40;0.93;;;18.10;50.40;;;;;;6208396;22;20235;-88
2022/01/24 06:18:33;;;;;;;1.33;1.20;;;18.20;50.70;;;;;;6232409;22;20210;-87
2022/01/24 06:20:59;;;;;;;3.60;1.13;;;18.10;50.40;;;;;;6208963;22;20136;-87
2022/01/24 06:23:26;;;;;;;1.20;1.10;;;18.10;50.70;;;;;;6212962;22;20152;-87
2022/01/24 06:25:51;;;;;;;1.27;1.10;;;18.20;50.40;;;;;;6213517;22;20646;-87
2022/01/24 06:28:18;;;;;;;2.15;1.02;;;18.20;50.40;;;;;;6213495;22;20156;-88
2022/01/24 06:30:46;;;;;;;0.90;0.90;;;18.20;50.40;;;;;;6213312;22;20156;-87
2022/01/24 06:33:13;;;;;;;2.33;1.27;;;18.20;50.40;;;;;;6237110;22;20133;-86
2022/01/24 06:35:41;;;;;;;1.17;1.00;;;18.20;50.50;;;;;;6235196;22;20133;-87
2022/01/24 06:38:06;;;;;;;3.58;1.27;;;18.20;50.70;;;;;;6206611;23;20648;-87
2022/01/24 06:40:32;;;;;;;1.17;0.90;;;18.20;50.40;;;;;;6206670;23;20145;-87
2022/01/24 06:43:00;;;;;;;1.88;1.00;;;18.20;50.30;;;;;;6255763;23;20164;-87
2022/01/24 06:45:34;;;;;;;1.13;1.02;;;18.20;50.20;;;;;;6201133;23;20643;-87
2022/01/24 06:48:10;;;;;;;1.50;0.90;;;18.20;50.70;;;;;;6178522;23;20173;-87
2022/01/24 06:50:37;;;;;;;1.40;0.80;;;18.30;50.30;;;;;;6177273;23;20585;-87
2022/01/24 06:53:04;;;;;;;1.25;1.05;;;18.20;50.30;;;;;;6174636;23;20145;-88
2022/01/24 06:55:35;;;;;;;1.02;0.93;;;18.20;50.40;;;;;;6201810;23;20176;-87
2022/01/24 06:58:01;;;;;;;1.35;1.00;;;18.20;50.10;;;;;;6200722;23;20153;-87
2022/01/24 07:00:30;;;;;;;1.10;1.00;;;18.20;49.90;;;;;;6226709;23;20137;-88
2022/01/24 07:02:58;;;;;;;1.08;0.90;;;18.20;50.10;;;;;;6203339;23;20668;-88
2022/01/24 07:05:24;;;;;;;1.00;0.93;;;18.30;50.30;;;;;;6230414;23;20130;-86
2022/01/24 07:07:56;;;;;;;3.10;1.30;;;18.30;50.70;;;;;;6206285;23;20155;-87
2022/01/24 07:10:57;;;;;;;3.35;1.42;;;18.30;51.00;;;;;;6193757;23;20189;-89
2022/01/24 07:13:50;;;;;;;1.92;1.10;;;18.30;51.00;;;;;;6143080;23;20158;-88
2022/01/24 07:16:35;;;;;;;1.85;1.00;;;18.20;50.90;;;;;;6103299;23;20160;-90
2022/01/24 07:19:03;;;;;;;1.17;0.88;;;18.20;50.70;;;;;;6103010;23;20196;-88
2022/01/24 07:22:02;;;;;;;1.52;1.00;;;18.30;50.50;;;;;;6057026;23;20156;-90
2022/01/24 07:24:48;;;;;;;1.20;1.02;;;18.30;50.30;;;;;;6084153;23;20215;-88
2022/01/24 07:27:30;;;;;;;1.00;0.90;;;18.30;50.40;;;;;;6083618;23;20157;-88
2022/01/24 07:30:01;;;;;;;1.63;1.00;;;18.40;50.20;;;;;;6102085;23;20156;-88
2022/01/24 07:32:28;;;;;;;0.85;0.85;;;18.30;50.20;;;;;;6099403;23;20161;-89
2022/01/24 07:35:23;;;;;;;1.42;0.90;;;18.30;50.10;;;;;;6102961;23;20156;-90
2022/01/24 07:37:48;;;;;;;1.05;0.93;;;18.30;50.20;;;;;;6063001;23;20256;-89
2022/01/24 07:40:20;;;;;;;2.38;1.00;;;18.30;50.10;;;;;;6071361;23;20217;-88
2022/01/24 07:43:16;;;;;;;0.85;0.80;;;18.40;50.00;;;;;;5991868;24;20215;-90
2022/01/24 07:45:43;;;;;;;0.82;0.80;;;18.40;50.20;;;;;;6007561;23;20155;-87
2022/01/24 07:48:49;;;;;;;0.80;0.80;;;18.40;50.10;;;;;;6012418;23;20154;-89
2022/01/24 07:51:15;;;;;;;1.20;0.82;;;18.40;50.20;;;;;;5996655;23;20214;-90
2022/01/24 07:53:42;;;;;;;2.08;1.00;;;18.40;50.10;;;;;;5993443;23;20599;-88
2022/01/24 07:56:07;;;;;;;0.80;0.75;;;18.40;50.10;;;;;;6016373;23;20320;-85
2022/01/24 07:59:08;;;;;;;1.67;0.98;;;18.40;50.10;;;;;;6019236;23;20182;-88
2022/01/24 08:01:41;;;;;;;1.63;0.93;;;18.40;50.00;;;;;;6023903;23;20157;-81
2022/01/24 08:04:07;;;;;;;1.40;0.70;;;18.40;50.20;;;;;;6041254;23;20161;-80
2022/01/24 08:06:33;;;;;;;1.33;0.90;;;18.40;50.30;;;;;;6043314;23;20216;-81
2022/01/24 08:08:59;;;;;;;0.65;0.65;;;18.50;50.20;;;;;;6043086;23;20161;-82
2022/01/24 08:11:39;;;;;;;1.20;0.98;;;18.50;50.00;;;;;;6017939;23;20158;-81
2022/01/24 08:14:30;;;;;;;2.20;0.90;;;18.60;50.00;;;;;;6064794;23;20153;-79
2022/01/24 08:21:18;;;;;;;2.83;1.00;;;18.50;49.70;;;;;;5950017;24;20171;-80
2022/01/24 08:58:38;;;;;;;2.45;0.80;;;18.60;50.00;;;;;;6227640;22;1338638;-79
2022/01/24 09:01:05;;;;;;;4.40;1.02;;;18.70;49.70;;;;;;6316160;22;20491;-79
2022/01/24 09:03:36;;;;;;;4.30;1.10;;;18.70;49.70;;;;;;6262429;22;20229;-79
2022/01/24 09:06:02;;;;;;;1.98;0.90;;;18.70;49.70;;;;;;6239818;22;20150;-79
2022/01/24 09:08:27;;;;;;;2.88;1.00;;;18.70;49.90;;;;;;6263109;22;20128;-82
2022/01/24 09:10:53;;;;;;;4.00;1.20;;;18.60;49.60;;;;;;6315684;22;20173;-79
2022/01/24 09:13:19;;;;;;;1.50;1.17;;;18.70;49.70;;;;;;6288372;22;20206;-79
2022/01/24 09:15:45;;;;;;;2.15;1.02;;;18.70;49.70;;;;;;6262557;22;20467;-80
2022/01/24 09:18:16;;;;;;;2.45;0.90;;;18.70;49.30;;;;;;6263733;22;20277;-79
2022/01/24 09:20:43;;;;;;;3.35;0.88;;;18.70;49.40;;;;;;6211006;22;20151;-80
2022/01/24 09:23:10;;;;;;;2.25;1.00;;;18.70;49.70;;;;;;6235544;22;20441;-80
2022/01/24 09:25:36;;;;;;;1.48;0.80;;;18.70;49.40;;;;;;6235589;22;20201;-81
2022/01/24 09:28:02;;;;;;;1.92;1.00;;;18.70;49.40;;;;;;6266603;22;20132;-81
2022/01/24 09:30:27;;;;;;;4.40;1.10;;;18.70;49.50;;;;;;6236967;22;20218;-82
2022/01/24 09:32:59;;;;;;;1.73;1.00;;;18.80;49.70;;;;;;6263245;22;20167;-81
2022/01/24 09:35:30;;;;;;;3.55;0.80;;;18.70;49.60;;;;;;6209934;22;20151;-83
2022/01/24 09:37:55;;;;;;;3.42;0.90;;;18.70;49.50;;;;;;6261974;22;20159;-82
2022/01/24 09:40:22;;;;;;;2.22;0.90;;;18.70;49.70;;;;;;6288569;22;20128;-81
2022/01/24 09:42:50;;;;;;;3.35;0.80;;;18.70;49.80;;;;;;6235577;22;20176;-81
2022/01/24 09:45:16;;;;;;;3.47;1.05;;;18.70;49.60;;;;;;6238318;22;20516;-82
2022/01/24 09:47:47;;;;;;;1.85;1.10;;;18.70;49.90;;;;;;6263814;22;20574;-80
2022/01/24 09:50:18;;;;;;;2.22;0.90;;;18.70;50.20;;;;;;6170981;23;20156;-81
2022/01/24 09:52:47;;;;;;;1.17;1.00;;;18.80;50.10;;;;;;6143955;23;20185;-81
2022/01/24 09:55:14;;;;;;;3.38;0.93;;;18.80;49.90;;;;;;6163655;23;20558;-81
2022/01/24 09:57:57;;;;;;;3.28;1.10;;;18.80;50.50;;;;;;6162645;23;20189;-81
2022/01/24 10:00:25;;;;;;;3.33;0.93;;;18.80;50.10;;;;;;6146771;23;20154;-84
2022/01/24 10:02:53;;;;;;;4.35;1.25;;;18.80;50.00;;;;;;6189642;23;20265;-82
2022/01/24 10:05:37;;;;;;;4.45;0.90;;;18.80;50.20;;;;;;6189512;23;20150;-80
2022/01/24 10:08:24;;;;;;;2.22;0.82;;;18.80;50.10;;;;;;6106254;23;20495;-81
2022/01/24 10:11:28;;;;;;;4.82;1.10;;;18.80;50.20;;;;;;6096604;23;20612;-81
2022/01/24 10:17:04;;;;;;;2.88;1.08;;;18.80;50.10;;;;;;5997801;23;20189;-82
2022/01/24 10:19:30;;;;;;;1.35;0.90;;;18.80;50.10;;;;;;6059264;23;20156;-83
2022/01/24 10:22:00;;;;;;;4.15;0.80;;;18.80;50.00;;;;;;6044521;23;20354;-81
2022/01/24 10:24:47;;;;;;;2.95;1.10;;;18.80;50.00;;;;;;6044871;23;20259;-82
2022/01/24 10:27:17;;;;;;;2.10;1.00;;;18.80;50.10;;;;;;6024608;23;20220;-81
2022/01/24 10:29:49;;;;;;;1.88;1.00;;;18.80;50.20;;;;;;6020685;23;20176;-82
2022/01/24 10:32:34;;;;;;;2.20;0.90;;;18.80;50.10;;;;;;6023824;23;20149;-82
2022/01/24 10:35:19;;;;;;;3.13;1.05;;;18.80;49.90;;;;;;6021229;23;20149;-82
2022/01/24 10:37:48;;;;;;;1.27;0.80;;;18.80;50.00;;;;;;6068166;23;20162;-82
2022/01/24 10:40:29;;;;;;;1.45;0.85;;;18.80;50.00;;;;;;6049389;23;20156;-82
2022/01/24 10:42:59;;;;;;;1.60;0.90;;;18.80;50.00;;;;;;6215527;23;20180;-82
2022/01/24 10:45:27;;;;;;;4.45;1.00;;;18.90;50.00;;;;;;6165675;23;20251;-81
2022/01/24 10:47:55;;;;;;;3.45;1.08;;;18.90;50.00;;;;;;6190528;23;20147;-81
2022/01/24 10:50:25;;;;;;;1.77;0.98;;;18.80;49.90;;;;;;6215687;22;20154;-82
2022/01/24 10:52:51;;;;;;;2.38;0.95;;;18.90;50.00;;;;;;6207023;22;20166;-82
2022/01/24 10:55:24;;;;;;;1.83;0.90;;;18.90;49.90;;;;;;6230170;22;20392;-82
2022/01/24 10:57:52;;;;;;;0.93;0.82;;;19.00;50.00;;;;;;6215959;23;20192;-81
2022/01/24 11:00:24;;;;;;;1.27;1.00;;;18.90;49.90;;;;;;6201243;23;20574;-82
2022/01/24 11:02:50;;;;;;;1.75;0.85;;;19.00;50.00;;;;;;6222305;23;20160;-82
2022/01/24 11:05:20;;;;;;;2.10;1.00;;;18.90;50.00;;;;;;6225314;23;20144;-82
2022/01/24 11:07:58;;;;;;;1.33;1.05;;;18.90;50.00;;;;;;6200724;23;20149;-82
2022/01/24 11:10:26;;;;;;;2.05;0.77;;;18.90;50.00;;;;;;6201101;23;20556;-82
2022/01/24 11:12:52;;;;;;;1.27;0.77;;;18.90;50.00;;;;;;6224285;23;20185;-83
2022/01/24 11:15:19;;;;;;;2.45;1.10;;;18.90;49.90;;;;;;6201031;23;20586;-82
2022/01/24 11:17:51;;;;;;;1.70;0.93;;;18.90;49.90;;;;;;6175077;23;20150;-82
2022/01/24 11:20:21;;;;;;;1.30;0.90;;;18.90;50.00;;;;;;6188191;23;20150;-82
2022/01/24 11:22:59;;;;;;;2.55;1.10;;;18.90;50.00;;;;;;6188626;23;20287;-82
2022/01/24 11:25:28;;;;;;;1.52;0.90;;;18.90;49.90;;;;;;6189560;23;20164;-82
2022/01/24 11:27:53;;;;;;;1.10;0.98;;;18.90;50.00;;;;;;6163517;23;20153;-82
2022/01/24 11:30:22;;;;;;;1.30;0.70;;;18.90;50.00;;;;;;6163803;23;20150;-82
2022/01/24 11:32:50;;;;;;;1.50;0.85;;;18.90;50.00;;;;;;6189027;23;20146;-82
2022/01/24 11:35:33;;;;;;;1.70;0.90;;;18.90;50.00;;;;;;6188515;23;20154;-82
2022/01/24 11:37:59;;;;;;;1.48;0.98;;;18.90;49.70;;;;;;6188730;23;20146;-81
2022/01/24 11:40:24;;;;;;;1.45;1.02;;;18.90;50.00;;;;;;6163362;23;20150;-81
2022/01/24 11:42:51;;;;;;;1.83;0.80;;;18.90;50.60;;;;;;6187993;23;20211;-81
2022/01/24 11:45:19;;;;;;;2.95;0.90;;;18.80;49.70;;;;;;6213460;23;20313;-82
2022/01/24 11:47:46;;;;;;;2.67;0.88;;;18.90;49.80;;;;;;6163302;23;20138;-81
2022/01/24 11:50:36;;;;;;;1.15;0.77;;;18.80;49.90;;;;;;6182213;23;20250;-82
2022/01/24 11:53:03;;;;;;;0.98;0.70;;;19.00;50.00;;;;;;6220962;23;20128;-81
2022/01/24 11:55:31;;;;;;;2.15;0.82;;;19.00;49.80;;;;;;6200173;23;20133;-82
2022/01/24 11:57:58;;;;;;;1.80;0.80;;;18.90;49.90;;;;;;6199819;23;20289;-83
2022/01/24 12:00:26;;;;;;;1.75;0.85;;;18.90;49.80;;;;;;6200572;23;20173;-82
2022/01/24 12:02:58;;;;;;;1.98;0.88;;;18.90;49.80;;;;;;6224843;23;20164;-83
2022/01/24 12:05:26;;;;;;;1.38;0.90;;;19.00;49.70;;;;;;6178242;23;20249;-83
2022/01/24 12:07:55;;;;;;;2.17;1.00;;;18.90;49.80;;;;;;6177161;23;20140;-84
2022/01/24 12:10:44;;;;;;;1.95;0.80;;;18.90;49.60;;;;;;6198346;23;20524;-83
2022/01/24 12:13:17;;;;;;;1.00;0.90;;;18.90;49.60;;;;;;6203465;23;20132;-82
2022/01/24 12:15:52;;;;;;;1.30;0.82;;;18.90;49.70;;;;;;6197676;23;20136;-83
2022/01/24 12:18:42;;;;;;;0.85;0.70;;;19.00;49.70;;;;;;6225745;23;20551;-83
2022/01/24 12:21:13;;;;;;;1.55;0.90;;;18.90;49.60;;;;;;6139332;23;20184;-82
2022/01/24 12:23:48;;;;;;;1.80;0.80;;;18.90;49.70;;;;;;6149994;23;20160;-83
2022/01/24 12:26:25;;;;;;;2.25;1.00;;;19.00;49.70;;;;;;6174681;23;20152;-82
2022/01/24 12:28:58;;;;;;;1.30;1.00;;;19.00;49.90;;;;;;6149477;23;20151;-82
2022/01/24 12:31:29;;;;;;;0.93;0.70;;;19.00;49.70;;;;;;6153363;23;20160;-82
2022/01/24 12:34:16;;;;;;;0.93;0.80;;;19.00;49.20;;;;;;6125203;23;20265;-82
2022/01/24 12:36:51;;;;;;;1.65;0.93;;;19.00;49.10;;;;;;6204906;23;20137;-81
2022/01/24 12:39:24;;;;;;;3.17;0.70;;;19.00;49.20;;;;;;6225558;23;20132;-83
2022/01/24 12:41:59;;;;;;;2.45;0.70;;;19.00;48.80;;;;;;6225280;23;20167;-80
2022/01/24 12:47:17;;;;;;;1.17;0.75;;;19.10;49.00;;;;;;6214497;23;20147;-79
2022/01/24 12:49:43;;;;;;;2.13;0.93;;;18.90;49.10;;;;;;6224078;23;20128;-80
2022/01/24 12:52:11;;;;;;;1.63;0.90;;;19.00;49.20;;;;;;6224315;23;20219;-82
2022/01/24 12:54:39;;;;;;;0.95;0.88;;;19.00;49.20;;;;;;6199637;23;20171;-81
2022/01/24 12:57:06;;;;;;;1.17;1.05;;;19.00;49.30;;;;;;6199681;23;20192;-81
2022/01/24 12:59:33;;;;;;;1.98;0.75;;;19.10;49.20;;;;;;6199873;23;20230;-82
2022/01/24 13:02:02;;;;;;;0.93;0.80;;;19.00;48.70;;;;;;6225874;23;20182;-80
2022/01/24 13:04:34;;;;;;;1.35;0.95;;;19.00;48.70;;;;;;6222974;23;20140;-80
2022/01/24 13:07:05;;;;;;;1.35;0.90;;;19.00;49.20;;;;;;6123161;23;20228;-79
2022/01/24 13:09:31;;;;;;;1.52;1.13;;;19.00;49.00;;;;;;6148853;23;20156;-81
2022/01/24 13:12:01;;;;;;;1.27;0.98;;;19.00;49.00;;;;;;6199917;23;20133;-81
2022/01/24 13:14:51;;;;;;;1.35;0.80;;;19.00;49.20;;;;;;6200118;23;20156;-81
2022/01/24 13:22:49;;;;;;;1.50;0.75;;;19.00;49.10;;;;;;6189138;23;20248;-79
2022/01/24 13:25:22;;;;;;;1.45;0.73;;;18.90;49.20;;;;;;6200689;23;20623;-80
2022/01/24 13:27:51;;;;;;;2.63;1.10;;;19.00;49.10;;;;;;6199923;23;20156;-80
2022/01/24 13:30:24;;;;;;;2.22;1.00;;;19.00;49.00;;;;;;6200060;23;20595;-80
2022/01/24 13:32:54;;;;;;;4.55;1.00;;;19.10;49.40;;;;;;6176268;23;20544;-80
2022/01/24 13:35:30;;;;;;;4.53;1.08;;;19.00;49.20;;;;;;6200116;23;20205;-80
2022/01/24 13:37:59;;;;;;;1.90;0.80;;;19.10;49.10;;;;;;6201267;23;20524;-80
2022/01/24 13:41:01;;;;;;;2.65;0.93;;;19.00;49.20;;;;;;6199964;23;20148;-80
2022/01/24 13:43:33;;;;;;;7.53;1.38;;;19.00;49.10;;;;;;6202212;23;20163;-80
2022/01/24 13:45:59;;;;;;;1.67;0.85;;;19.00;49.00;;;;;;6175680;23;20156;-80
2022/01/24 13:48:25;;;;;;;2.70;1.10;;;19.00;48.90;;;;;;6200198;23;20144;-80
2022/01/24 13:50:55;;;;;;;2.10;1.10;;;19.00;49.20;;;;;;6225346;23;20137;-80
2022/01/24 13:53:30;;;;;;;3.25;1.10;;;19.00;49.30;;;;;;6175322;23;20175;-80
2022/01/24 13:55:56;;;;;;;4.43;1.10;;;19.00;49.50;;;;;;6175148;23;20147;-81
2022/01/24 13:58:26;;;;;;;2.15;0.80;;;19.00;49.60;;;;;;6175363;23;20258;-80
2022/01/24 14:00:57;;;;;;;0.80;0.70;;;19.00;48.90;;;;;;6175595;23;20491;-80
2022/01/24 14:03:23;;;;;;;4.00;0.90;;;19.00;49.00;;;;;;6175187;23;20210;-80
2022/01/24 14:05:49;;;;;;;2.15;0.80;;;19.00;48.80;;;;;;6225218;23;20202;-80
2022/01/24 14:08:15;;;;;;;5.50;1.10;;;19.00;49.10;;;;;;6199954;23;20140;-80
2022/01/24 14:10:41;;;;;;;3.33;1.00;;;19.00;49.00;;;;;;6200556;23;20167;-80
2022/01/24 14:13:08;;;;;;;1.52;0.80;;;19.00;48.80;;;;;;6173341;23;20144;-80
2022/01/24 14:18:25;;;;;;;5.45;0.85;;;19.10;49.60;;;;;;6188932;23;20433;-80
2022/01/24 14:20:53;;;;;;;1.98;0.98;;;19.00;48.90;;;;;;6177623;23;20159;-80
2022/01/24 14:23:25;;;;;;;1.00;0.90;;;19.00;49.10;;;;;;6175139;23;20156;-80
2022/01/24 14:25:51;;;;;;;2.63;0.90;;;19.00;48.90;;;;;;6174947;23;20152;-80
2022/01/24 14:28:22;;;;;;;4.72;1.10;;;19.00;49.10;;;;;;6174659;23;20238;-80
2022/01/24 14:30:47;;;;;;;2.47;0.90;;;19.00;49.10;;;;;;6176903;23;20223;-80
2022/01/24 14:33:20;;;;;;;3.22;0.90;;;19.00;49.00;;;;;;6224425;23;20150;-80
2022/01/24 14:35:56;;;;;;;1.25;0.82;;;19.00;48.90;;;;;;6173293;23;20587;-81
2022/01/24 14:38:47;;;;;;;3.95;0.90;;;19.00;48.90;;;;;;6172397;23;20150;-80
2022/01/24 14:41:29;;;;;;;3.05;1.10;;;19.10;48.70;;;;;;6221498;23;20622;-81
2022/01/24 14:46:38;;;;;;;2.85;0.90;;;19.00;48.90;;;;;;6209704;23;20339;-80
2022/01/24 14:49:06;;;;;;;1.23;0.80;;;19.00;48.80;;;;;;6223416;23;20144;-81
2022/01/24 14:51:34;;;;;;;2.28;1.10;;;19.00;48.80;;;;;;6173187;23;20145;-79
2022/01/24 14:54:08;;;;;;;3.10;1.00;;;19.10;48.60;;;;;;6174726;23;20144;-79
2022/01/24 14:56:35;;;;;;;1.60;1.08;;;19.10;48.50;;;;;;6174757;23;20476;-80
2022/01/24 14:59:02;;;;;;;3.35;1.20;;;19.10;48.90;;;;;;6199269;23;20246;-79
2022/01/24 15:01:27;;;;;;;2.33;0.80;;;19.10;48.70;;;;;;6224203;23;20250;-80
2022/01/24 15:03:54;;;;;;;1.30;0.80;;;19.00;48.80;;;;;;6174879;23;20180;-81
2022/01/24 15:06:20;;;;;;;3.08;0.90;;;19.10;48.90;;;;;;6198636;23;20155;-80
2022/01/24 15:08:47;;;;;;;3.20;1.00;;;19.00;48.90;;;;;;6174202;23;20156;-80
2022/01/24 15:11:16;;;;;;;2.25;0.90;;;19.00;48.80;;;;;;6174299;23;20239;-79
2022/01/24 15:13:50;;;;;;;3.65;1.02;;;19.10;48.90;;;;;;6198042;23;20227;-81
2022/01/24 15:16:17;;;;;;;2.92;0.98;;;19.00;48.90;;;;;;6176451;23;20151;-80
2022/01/24 15:24:26;;;;;;;2.95;1.05;;;19.10;49.10;;;;;;6191355;23;20613;-80